createdAt,value
2023-01-10T00:01:58.077Z,5.27
2023-01-10T00:04:28.801Z,4.80
2023-01-10T00:06:56.144Z,4.93
2023-01-10T00:09:23.103Z,4.50
2023-01-10T00:12:08.554Z,3.97
2023-01-10T00:14:35.470Z,3.87
2023-01-10T00:17:03.419Z,4.03
2023-01-10T00:19:30.884Z,3.17
2023-01-10T00:21:58.389Z,3.10
2023-01-10T00:24:25.203Z,3.23
2023-01-10T00:26:52.358Z,3.00
2023-01-10T00:29:20.499Z,2.77
2023-01-10T00:31:47.712Z,2.63
2023-01-10T00:34:15.155Z,2.87
2023-01-10T00:36:42.223Z,2.10
2023-01-10T00:39:11.357Z,2.80
2023-01-10T00:41:57.250Z,2.60
2023-01-10T00:44:24.113Z,2.40
2023-01-10T00:46:50.873Z,2.23
2023-01-10T00:49:17.958Z,2.57
2023-01-10T00:51:45.396Z,2.40
2023-01-10T00:54:13.645Z,3.00
2023-01-10T00:56:40.804Z,2.80
2023-01-10T00:59:07.834Z,3.63
2023-01-10T01:01:34.706Z,3.30
2023-01-10T01:04:01.611Z,3.00
2023-01-10T01:06:28.504Z,3.20
2023-01-10T01:08:55.255Z,3.10
2023-01-10T01:11:22.169Z,3.37
2023-01-10T01:13:48.965Z,3.20
2023-01-10T01:16:15.882Z,3.53
2023-01-10T01:18:42.682Z,3.90
2023-01-10T01:21:09.524Z,4.23
2023-01-10T01:23:36.691Z,4.13
2023-01-10T01:26:03.648Z,4.23
2023-01-10T01:28:30.871Z,4.63
2023-01-10T01:30:58.051Z,4.77
2023-01-10T01:33:25.142Z,4.30
2023-01-10T01:35:51.935Z,4.33
2023-01-10T01:38:20.044Z,4.40
2023-01-10T01:40:46.913Z,4.57
2023-01-10T01:43:59.222Z,6.20
2023-01-10T01:46:26.037Z,5.57
2023-01-10T01:48:53.378Z,6.07
2023-01-10T01:51:26.851Z,6.37
2023-01-10T01:54:00.124Z,7.80
2023-01-10T01:56:42.997Z,7.80
2023-01-10T01:59:23.860Z,8.63
2023-01-10T02:01:55.076Z,7.60
2023-01-10T02:04:29.632Z,8.20
2023-01-10T02:06:58.720Z,9.37
2023-01-10T02:09:49.862Z,9.17
2023-01-10T02:12:17.217Z,9.03
2023-01-10T02:14:45.370Z,10.07
2023-01-10T02:17:12.708Z,10.03
2023-01-10T02:19:56.412Z,9.07
2023-01-10T02:22:45.426Z,9.30
2023-01-10T02:25:49.231Z,8.93
2023-01-10T02:28:34.784Z,9.60
2023-01-10T02:31:04.588Z,10.17
2023-01-10T02:33:37.989Z,9.80
2023-01-10T02:36:15.061Z,9.17
2023-01-10T02:39:08.061Z,9.00
2023-01-10T02:41:56.089Z,8.93
2023-01-10T02:44:53.878Z,9.10
2023-01-10T02:47:21.044Z,8.77
2023-01-10T02:49:50.140Z,8.70
2023-01-10T02:52:22.875Z,8.77
2023-01-10T02:54:52.993Z,7.80
2023-01-10T02:57:55.394Z,8.07
2023-01-10T03:00:26.342Z,8.67
2023-01-10T03:03:37.974Z,7.10
2023-01-10T03:06:19.191Z,8.10
2023-01-10T03:08:51.691Z,7.27
2023-01-10T03:11:39.419Z,7.03
2023-01-10T03:14:11.708Z,6.43
2023-01-10T03:16:41.696Z,7.20
2023-01-10T03:19:12.698Z,6.50
2023-01-10T03:21:42.814Z,6.83
2023-01-10T03:24:17.566Z,6.63
2023-01-10T03:26:52.580Z,6.80
2023-01-10T03:29:28.835Z,6.57
2023-01-10T03:32:00.711Z,6.33
2023-01-10T03:34:27.772Z,5.93
2023-01-10T03:37:11.909Z,6.33
2023-01-10T03:39:42.115Z,6.10
2023-01-10T03:42:27.064Z,6.60
2023-01-10T03:45:10.321Z,6.23
2023-01-10T03:47:47.908Z,6.50
2023-01-10T03:50:23.409Z,6.03
2023-01-10T03:52:50.431Z,5.67
2023-01-10T03:55:23.607Z,6.17
2023-01-10T03:57:50.647Z,5.63
2023-01-10T04:00:18.272Z,6.60
2023-01-10T04:02:45.801Z,6.27
2023-01-10T04:05:13.337Z,6.40
2023-01-10T04:07:40.566Z,6.03
2023-01-10T04:10:08.619Z,5.97
2023-01-10T04:12:35.447Z,6.07
2023-01-10T04:15:03.156Z,6.60
2023-01-10T04:17:30.008Z,6.97
2023-01-10T04:19:56.872Z,6.23
2023-01-10T04:22:23.659Z,5.77
2023-01-10T04:24:52.029Z,5.70
2023-01-10T04:27:19.302Z,6.10
2023-01-10T04:29:46.817Z,5.60
2023-01-10T04:32:13.626Z,5.03
2023-01-10T04:34:40.446Z,4.30
2023-01-10T04:37:07.418Z,5.60
2023-01-10T04:39:34.169Z,5.37
2023-01-10T04:42:00.895Z,5.50
2023-01-10T04:44:27.682Z,5.27
2023-01-10T04:46:54.557Z,5.43
2023-01-10T04:49:22.730Z,5.83
2023-01-10T04:51:49.485Z,5.40
2023-01-10T04:54:20.433Z,6.40
2023-01-10T04:56:47.488Z,6.60
2023-01-10T04:59:14.736Z,6.77
2023-01-10T05:01:41.764Z,6.93
2023-01-10T05:04:09.353Z,7.87
2023-01-10T05:06:37.236Z,6.40
2023-01-10T05:09:04.141Z,7.37
2023-01-10T05:11:31.287Z,8.10
2023-01-10T05:13:58.114Z,7.20
2023-01-10T05:16:25.576Z,7.27
2023-01-10T05:18:52.481Z,7.73
2023-01-10T05:21:19.366Z,7.80
2023-01-10T05:23:46.418Z,6.67
2023-01-10T05:26:19.678Z,7.00
2023-01-10T05:28:46.949Z,7.20
2023-01-10T05:31:16.418Z,6.70
2023-01-10T05:33:49.072Z,7.03
2023-01-10T05:36:17.000Z,7.43
2023-01-10T05:38:44.012Z,6.47
2023-01-10T05:41:10.907Z,6.87
2023-01-10T05:43:37.752Z,7.03
2023-01-10T05:46:04.836Z,7.00
2023-01-10T05:48:31.841Z,6.93
2023-01-10T05:50:58.605Z,6.53
2023-01-10T05:53:25.507Z,6.63
2023-01-10T05:56:00.708Z,6.20
2023-01-10T05:58:28.608Z,7.23
2023-01-10T06:00:56.754Z,6.87
2023-01-10T06:03:25.155Z,7.17
2023-01-10T06:05:52.576Z,6.90
2023-01-10T06:08:19.372Z,6.80
2023-01-10T06:10:46.209Z,7.10
2023-01-10T06:13:13.360Z,8.37
2023-01-10T06:15:40.190Z,7.70
2023-01-10T06:18:11.805Z,7.33
2023-01-10T06:20:39.234Z,7.17
2023-01-10T06:23:06.066Z,7.87
2023-01-10T06:25:36.956Z,7.23
2023-01-10T06:28:04.115Z,7.50
2023-01-10T06:30:31.089Z,8.23
2023-01-10T06:33:08.659Z,8.33
2023-01-10T06:35:36.288Z,8.17
2023-01-10T06:38:03.343Z,7.90
2023-01-10T06:40:30.382Z,8.93
2023-01-10T06:42:57.223Z,8.40
2023-01-10T06:45:24.055Z,8.70
2023-01-10T06:47:50.846Z,8.50
2023-01-10T06:50:17.722Z,8.20
2023-01-10T06:52:44.619Z,8.33
2023-01-10T06:55:11.803Z,8.90
2023-01-10T06:57:38.839Z,8.50
2023-01-10T07:00:08.821Z,8.90
2023-01-10T07:02:35.806Z,9.00
2023-01-10T07:05:02.778Z,9.17
2023-01-10T07:07:29.585Z,8.47
2023-01-10T07:09:56.340Z,8.07
2023-01-10T07:12:23.211Z,8.07
2023-01-10T07:14:49.980Z,9.33
2023-01-10T07:17:16.721Z,8.83
2023-01-10T07:19:43.521Z,9.43
2023-01-10T07:22:11.375Z,8.53
2023-01-10T07:24:38.278Z,9.80
2023-01-10T07:27:05.195Z,9.40
2023-01-10T07:29:32.019Z,10.00
2023-01-10T07:31:58.806Z,10.90
2023-01-10T07:34:26.430Z,8.93
2023-01-10T07:36:53.285Z,9.70
2023-01-10T07:39:20.034Z,11.03
2023-01-10T07:41:50.358Z,10.43
2023-01-10T07:44:17.282Z,10.50
2023-01-10T07:46:44.129Z,10.20
2023-01-10T07:49:11.004Z,11.20
2023-01-10T07:51:37.960Z,10.83
2023-01-10T07:54:04.780Z,9.50
2023-01-10T07:56:31.730Z,10.27
2023-01-10T07:58:58.784Z,9.67
2023-01-10T08:01:26.136Z,10.07
2023-01-10T08:03:53.070Z,9.53
2023-01-10T08:06:20.036Z,9.83
2023-01-10T08:08:46.901Z,9.07
2023-01-10T08:11:14.146Z,9.57
2023-01-10T08:13:41.290Z,9.47
2023-01-10T08:16:09.048Z,8.67
2023-01-10T08:18:36.197Z,9.27
2023-01-10T08:21:03.255Z,8.13
2023-01-10T08:23:30.275Z,8.17
2023-01-10T08:25:59.537Z,7.17
2023-01-10T08:28:26.497Z,7.70
2023-01-10T08:30:55.762Z,7.27
2023-01-10T08:33:24.008Z,6.73
2023-01-10T08:35:51.825Z,7.20
2023-01-10T08:38:19.206Z,7.00
2023-01-10T08:40:46.107Z,7.23
2023-01-10T08:43:13.666Z,7.53
2023-01-10T08:45:40.864Z,7.97
2023-01-10T08:48:09.746Z,7.57
2023-01-10T08:50:36.646Z,7.23
2023-01-10T08:53:03.845Z,7.90
2023-01-10T08:55:31.328Z,7.20
2023-01-10T08:58:02.587Z,7.97
2023-01-10T09:00:29.767Z,6.50
2023-01-10T09:02:57.377Z,6.57
2023-01-10T09:05:28.247Z,8.10
2023-01-10T09:08:00.758Z,7.43
2023-01-10T09:10:29.216Z,6.90
2023-01-10T09:13:00.196Z,8.17
2023-01-10T09:15:32.597Z,7.93
2023-01-10T09:18:07.734Z,7.70
2023-01-10T09:20:37.083Z,7.30
2023-01-10T09:23:20.095Z,6.97
2023-01-10T09:25:48.356Z,7.87
2023-01-10T09:28:15.818Z,7.00
2023-01-10T09:30:42.988Z,7.63
2023-01-10T09:33:10.666Z,7.47
2023-01-10T09:35:39.926Z,7.00
2023-01-10T09:38:08.271Z,6.67
2023-01-10T09:41:05.814Z,7.13
2023-01-10T09:43:56.082Z,7.17
2023-01-10T09:47:22.843Z,7.00
2023-01-10T09:49:56.046Z,6.93
2023-01-10T09:52:30.467Z,7.03
2023-01-10T09:55:01.040Z,7.73
2023-01-10T09:57:27.852Z,6.97
2023-01-10T09:59:55.259Z,7.33
2023-01-10T10:02:32.816Z,7.00
2023-01-10T10:05:11.735Z,6.77
2023-01-10T10:07:38.848Z,7.67
2023-01-10T10:10:08.098Z,7.40
2023-01-10T10:13:26.905Z,7.73
2023-01-10T10:16:00.079Z,6.97
2023-01-10T10:18:48.847Z,7.90
2023-01-10T10:21:22.637Z,6.80
2023-01-10T10:23:58.541Z,8.20
2023-01-10T10:26:25.423Z,7.07
2023-01-10T10:29:33.859Z,8.30
2023-01-10T10:32:17.270Z,7.33
2023-01-10T10:34:54.014Z,7.23
2023-01-10T10:37:26.538Z,7.53
2023-01-10T10:40:22.507Z,8.37
2023-01-10T10:42:52.721Z,7.83
2023-01-10T10:45:19.649Z,7.90
2023-01-10T10:48:00.132Z,7.30
2023-01-10T10:50:35.310Z,7.33
2023-01-10T10:53:03.838Z,7.93
2023-01-10T10:55:36.861Z,7.67
2023-01-10T10:58:05.240Z,7.50
2023-01-10T11:00:32.352Z,7.40
2023-01-10T11:03:23.351Z,7.63
2023-01-10T11:05:50.896Z,7.40
2023-01-10T11:08:20.568Z,6.80
2023-01-10T11:10:54.797Z,7.97
2023-01-10T11:13:39.007Z,7.80
2023-01-10T11:16:06.753Z,6.97
2023-01-10T11:18:34.031Z,8.07
2023-01-10T11:21:14.481Z,7.83
2023-01-10T11:23:59.685Z,6.97
2023-01-10T11:26:41.162Z,7.43
2023-01-10T11:29:43.850Z,7.40
2023-01-10T11:32:19.819Z,7.73
2023-01-10T11:35:00.210Z,7.80
2023-01-10T11:37:32.302Z,7.77
2023-01-10T11:40:23.227Z,7.97
2023-01-10T11:42:51.354Z,6.97
2023-01-10T11:45:18.321Z,7.47
2023-01-10T11:47:54.837Z,7.20
2023-01-10T11:50:25.991Z,6.53
2023-01-10T11:52:53.619Z,6.63
2023-01-10T11:55:27.737Z,7.27
2023-01-10T11:58:07.343Z,6.80
2023-01-10T12:00:38.244Z,6.70
2023-01-10T12:03:15.778Z,6.17
2023-01-10T12:05:51.116Z,7.67
2023-01-10T12:08:28.554Z,6.90
2023-01-10T12:11:05.564Z,6.93
2023-01-10T12:13:51.292Z,7.43
2023-01-10T12:16:25.468Z,6.73
2023-01-10T12:18:54.892Z,6.50
2023-01-10T12:21:28.251Z,6.60
2023-01-10T12:23:59.659Z,6.57
2023-01-10T12:26:31.978Z,6.53
2023-01-10T12:29:08.604Z,6.47
2023-01-10T12:31:39.231Z,6.00
2023-01-10T12:34:20.597Z,5.50
2023-01-10T12:37:01.401Z,5.20
2023-01-10T12:39:40.619Z,5.77
2023-01-10T12:42:26.248Z,5.53
2023-01-10T12:45:27.251Z,5.67
2023-01-10T12:48:21.398Z,5.23
2023-01-10T12:51:01.896Z,5.70
2023-01-10T12:53:43.991Z,6.03
2023-01-10T12:56:14.996Z,6.60
2023-01-10T12:58:56.358Z,5.50
2023-01-10T13:01:30.724Z,5.87
2023-01-10T13:04:06.209Z,4.40
2023-01-10T13:06:39.248Z,4.73
2023-01-10T13:09:11.465Z,4.47
2023-01-10T13:11:49.763Z,5.20
2023-01-10T13:14:23.247Z,4.13
2023-01-10T13:16:54.565Z,4.80
2023-01-10T13:19:28.490Z,4.40
2023-01-10T13:22:24.962Z,5.33
2023-01-10T13:25:02.819Z,4.80
2023-01-10T13:27:35.743Z,4.23
2023-01-10T13:30:04.375Z,5.20
2023-01-10T13:32:35.598Z,4.53
2023-01-10T13:35:16.093Z,4.50
2023-01-10T13:37:49.517Z,4.40
2023-01-10T13:40:30.256Z,4.40
2023-01-10T13:43:37.818Z,4.43
2023-01-10T13:46:20.007Z,4.07
2023-01-10T13:48:50.461Z,3.67
2023-01-10T13:51:19.027Z,4.57
2023-01-10T13:53:51.848Z,4.07
2023-01-10T13:56:35.524Z,4.37
2023-01-10T13:59:22.803Z,3.73
2023-01-10T14:02:16.147Z,3.23
2023-01-10T14:04:54.740Z,3.77
2023-01-10T14:07:31.361Z,3.40
2023-01-10T14:10:28.953Z,3.60
2023-01-10T14:13:09.709Z,3.57
2023-01-10T14:15:47.918Z,3.13
2023-01-10T14:18:25.484Z,4.03
2023-01-10T14:21:08.204Z,3.43
2023-01-10T14:23:39.941Z,3.67
2023-01-10T14:26:13.868Z,3.43
2023-01-10T14:28:42.229Z,4.07
2023-01-10T14:31:20.342Z,3.80
2023-01-10T14:33:48.391Z,3.57
2023-01-10T14:36:18.661Z,3.23
2023-01-10T14:38:46.844Z,3.20
2023-01-10T14:41:18.549Z,3.33
2023-01-10T14:43:57.898Z,3.70
2023-01-10T14:46:52.935Z,3.23
2023-01-10T14:49:22.659Z,3.13
2023-01-10T14:51:50.846Z,3.43
2023-01-10T14:54:24.735Z,3.23
2023-01-10T14:56:53.494Z,3.30
2023-01-10T14:59:36.103Z,3.20
2023-01-10T15:02:27.914Z,3.10
2023-01-10T15:05:12.816Z,2.87
2023-01-10T15:07:39.898Z,3.40
2023-01-10T15:10:47.285Z,2.47
2023-01-10T15:13:21.155Z,2.80
2023-01-10T15:15:50.182Z,3.37
2023-01-10T15:18:36.341Z,2.87
2023-01-10T15:21:04.900Z,3.90
2023-01-10T15:23:40.099Z,2.70
2023-01-10T15:26:16.373Z,2.90
2023-01-10T15:28:49.155Z,3.23
2023-01-10T15:31:17.172Z,2.83
2023-01-10T15:33:46.865Z,2.87
2023-01-10T15:36:20.694Z,3.10
2023-01-10T15:38:48.257Z,2.90
2023-01-10T15:41:21.710Z,2.73
2023-01-10T15:43:50.236Z,2.83
2023-01-10T15:46:23.103Z,2.67
2023-01-10T15:49:02.966Z,3.13
2023-01-10T15:51:34.524Z,3.00
2023-01-10T15:54:27.579Z,2.33
2023-01-10T15:57:04.442Z,2.57
2023-01-10T15:59:39.826Z,3.07
2023-01-10T16:02:15.652Z,3.27
2023-01-10T16:04:44.936Z,2.83
2023-01-10T16:07:27.798Z,2.93
2023-01-10T16:10:08.087Z,3.00
2023-01-10T16:12:58.423Z,2.60
2023-01-10T16:15:27.862Z,2.20
2023-01-10T16:17:54.794Z,2.87
2023-01-10T16:20:27.319Z,3.23
2023-01-10T16:22:55.775Z,2.77
2023-01-10T16:25:38.997Z,3.67
2023-01-10T16:28:06.376Z,2.60
2023-01-10T16:30:34.906Z,2.73
2023-01-10T16:33:26.313Z,3.27
2023-01-10T16:35:55.417Z,2.53
2023-01-10T16:38:23.703Z,2.67
2023-01-10T16:41:00.170Z,2.80
2023-01-10T16:43:29.173Z,3.03
2023-01-10T16:46:00.727Z,2.80
2023-01-10T16:48:29.803Z,3.40
2023-01-10T16:51:06.345Z,2.47
2023-01-10T16:53:33.174Z,2.63
2023-01-10T16:56:00.346Z,2.67
2023-01-10T16:58:27.273Z,2.60
2023-01-10T17:00:54.243Z,2.30
2023-01-10T17:03:23.644Z,2.00
2023-01-10T17:05:51.173Z,2.53
2023-01-10T17:08:21.263Z,2.67
2023-01-10T17:10:52.369Z,2.57
2023-01-10T17:13:25.154Z,2.13
2023-01-10T17:15:51.986Z,2.43
2023-01-10T17:18:18.725Z,2.13
2023-01-10T17:20:46.016Z,2.93
2023-01-10T17:23:15.073Z,2.13
2023-01-10T17:25:42.352Z,2.03
2023-01-10T17:28:12.088Z,2.07
2023-01-10T17:30:42.983Z,2.43
2023-01-10T17:33:13.593Z,2.53
2023-01-10T17:35:45.049Z,2.60
2023-01-10T17:38:14.938Z,3.20
2023-01-10T17:40:46.607Z,2.47
2023-01-10T17:43:15.491Z,2.57
2023-01-10T17:45:47.812Z,3.07
2023-01-10T17:48:16.266Z,2.53
2023-01-10T17:50:44.542Z,2.20
2023-01-10T17:53:11.496Z,2.53
2023-01-10T17:55:47.605Z,2.30
2023-01-10T17:58:16.355Z,3.00
2023-01-10T18:00:43.348Z,2.80
2023-01-10T18:03:10.898Z,3.13
2023-01-10T18:05:40.183Z,2.50
2023-01-10T18:08:08.136Z,2.70
2023-01-10T18:10:35.071Z,2.77
2023-01-10T18:13:03.575Z,2.57
2023-01-10T18:15:30.805Z,2.57
2023-01-10T18:17:58.085Z,2.70
2023-01-10T18:20:25.083Z,3.23
2023-01-10T18:23:10.652Z,2.70
2023-01-10T18:25:37.520Z,2.63
2023-01-10T18:28:04.465Z,2.77
2023-01-10T18:30:31.313Z,2.77
2023-01-10T18:32:58.165Z,2.57
2023-01-10T18:35:25.754Z,2.33
2023-01-10T18:37:52.950Z,2.60
2023-01-10T18:40:20.248Z,2.83
2023-01-10T18:42:51.398Z,2.80
2023-01-10T18:45:18.408Z,3.40
2023-01-10T18:47:45.205Z,3.00
2023-01-10T18:50:12.267Z,2.77
2023-01-10T18:52:42.131Z,2.77
2023-01-10T18:55:09.338Z,2.43
2023-01-10T18:57:36.308Z,2.63
2023-01-10T19:00:04.801Z,2.93
2023-01-10T19:02:32.145Z,2.83
2023-01-10T19:04:59.081Z,2.73
2023-01-10T19:07:26.273Z,3.63
2023-01-10T19:09:53.137Z,2.70
2023-01-10T19:12:22.390Z,2.83
2023-01-10T19:14:49.467Z,2.60
2023-01-10T19:17:18.386Z,3.00
2023-01-10T19:19:45.769Z,2.80
2023-01-10T19:22:12.781Z,2.63
2023-01-10T19:24:39.874Z,2.60
2023-01-10T19:27:06.779Z,2.60
2023-01-10T19:29:35.620Z,2.27
2023-01-10T19:32:04.162Z,2.83
2023-01-10T19:34:31.082Z,2.87
2023-01-10T19:36:58.078Z,3.30
2023-01-10T19:39:25.104Z,2.20
2023-01-10T19:41:52.065Z,2.43
2023-01-10T19:44:20.948Z,2.60
2023-01-10T19:46:49.075Z,3.00
2023-01-10T19:49:19.775Z,2.80
2023-01-10T19:51:53.489Z,3.30
2023-01-10T19:54:20.545Z,2.70
2023-01-10T19:56:47.588Z,2.63
2023-01-10T19:59:14.933Z,2.43
2023-01-10T20:01:42.375Z,3.00
2023-01-10T20:04:10.021Z,3.10
2023-01-10T20:06:39.696Z,2.60
2023-01-10T20:09:08.185Z,2.57
2023-01-10T20:11:40.445Z,3.00
2023-01-10T20:14:11.909Z,2.90
2023-01-10T20:16:38.841Z,2.87
2023-01-10T20:19:09.195Z,2.90
2023-01-10T20:21:37.241Z,3.20
2023-01-10T20:24:11.790Z,3.17
2023-01-10T20:26:39.233Z,3.30
2023-01-10T20:29:06.361Z,2.70
2023-01-10T20:31:33.405Z,2.40
2023-01-10T20:34:00.642Z,3.50
2023-01-10T20:36:28.423Z,2.57
2023-01-10T20:38:55.593Z,2.70
2023-01-10T20:41:24.997Z,2.73
2023-01-10T20:43:53.436Z,2.53
2023-01-10T20:46:25.537Z,2.50
2023-01-10T20:48:53.591Z,2.60
2023-01-10T20:51:23.146Z,2.77
2023-01-10T20:53:51.035Z,2.63
2023-01-10T20:56:20.926Z,2.70
2023-01-10T20:58:48.511Z,2.40
2023-01-10T21:01:28.852Z,2.50
2023-01-10T21:04:00.444Z,2.60
2023-01-10T21:06:27.498Z,2.00
2023-01-10T21:08:55.067Z,2.47
2023-01-10T21:11:22.038Z,2.10
2023-01-10T21:13:49.404Z,1.80
2023-01-10T21:16:19.442Z,1.93
2023-01-10T21:18:47.162Z,1.60
2023-01-10T21:21:22.819Z,2.00
2023-01-10T21:23:49.915Z,1.47
2023-01-10T21:26:17.229Z,1.30
2023-01-10T21:28:49.478Z,1.63
2023-01-10T21:31:19.510Z,1.83
2023-01-10T21:33:46.508Z,1.33
2023-01-10T21:36:13.983Z,1.10
2023-01-10T21:38:41.819Z,1.43
2023-01-10T21:41:14.656Z,0.87
2023-01-10T21:43:46.180Z,0.77
2023-01-10T21:46:15.429Z,1.37
2023-01-10T21:48:45.182Z,0.83
2023-01-10T21:51:12.154Z,0.90
2023-01-10T21:53:41.476Z,0.90
2023-01-10T21:56:08.711Z,0.93
2023-01-10T21:58:35.652Z,0.80
2023-01-10T22:01:02.701Z,0.90
2023-01-10T22:03:31.370Z,0.80
2023-01-10T22:06:00.800Z,0.80
2023-01-10T22:08:28.312Z,0.90
2023-01-10T22:10:55.155Z,1.00
2023-01-10T22:13:24.090Z,1.20
2023-01-10T22:15:58.415Z,0.90
2023-01-10T22:18:25.912Z,1.10
2023-01-10T22:20:55.826Z,1.03
2023-01-10T22:23:24.000Z,1.23
2023-01-10T22:26:04.565Z,1.07
2023-01-10T22:28:32.755Z,0.90
2023-01-10T22:31:00.191Z,0.80
2023-01-10T22:33:36.227Z,1.10
2023-01-10T22:36:08.512Z,0.83
2023-01-10T22:38:35.315Z,0.90
2023-01-10T22:41:20.049Z,0.80
2023-01-10T22:43:47.433Z,1.20
2023-01-10T22:46:15.843Z,0.87
2023-01-10T22:48:43.654Z,0.90
2023-01-10T22:51:10.583Z,0.73
2023-01-10T22:53:37.396Z,0.80
2023-01-10T22:56:06.703Z,0.60
2023-01-10T22:58:34.087Z,1.00
2023-01-10T23:01:04.346Z,0.93
2023-01-10T23:03:31.140Z,0.90
2023-01-10T23:05:58.899Z,0.60
2023-01-10T23:08:29.058Z,0.90
2023-01-10T23:10:55.911Z,0.60
2023-01-10T23:13:23.861Z,0.70
2023-01-10T23:15:58.252Z,0.77
2023-01-10T23:18:25.866Z,0.80
2023-01-10T23:20:52.896Z,0.67
2023-01-10T23:23:19.875Z,0.87
2023-01-10T23:26:01.346Z,0.70
2023-01-10T23:28:44.946Z,0.60
2023-01-10T23:31:12.763Z,0.80
2023-01-10T23:33:39.697Z,0.83
2023-01-10T23:36:07.191Z,0.50
2023-01-10T23:38:33.978Z,0.80
2023-01-10T23:41:00.942Z,0.77
2023-01-10T23:43:27.896Z,0.50
2023-01-10T23:45:54.806Z,1.00
2023-01-10T23:48:21.657Z,0.60
2023-01-10T23:50:50.127Z,0.73
2023-01-10T23:53:17.781Z,0.90
2023-01-10T23:55:44.742Z,0.70
2023-01-10T23:58:11.784Z,1.03
